sensor_id;sensor_type;location;lat;lon;timestamp;P1;durP1;ratioP1;P2;durP2;ratioP2
69856;SDS011;57147;53.582;10.112;2023-04-06T00:03:15;8.38;;;6.80;;
69856;SDS011;57147;53.582;10.112;2023-04-06T00:08:17;7.80;;;6.78;;
69856;SDS011;57147;53.582;10.112;2023-04-06T00:13:18;9.45;;;8.43;;
69856;SDS011;57147;53.582;10.112;2023-04-06T00:18:22;6.90;;;5.82;;
69856;SDS011;57147;53.582;10.112;2023-04-06T00:23:25;11.30;;;7.80;;
69856;SDS011;57147;53.582;10.112;2023-04-06T00:28:26;8.40;;;5.97;;
69856;SDS011;57147;53.582;10.112;2023-04-06T00:33:29;10.25;;;7.55;;
69856;SDS011;57147;53.582;10.112;2023-04-06T00:38:33;7.25;;;6.50;;
69856;SDS011;57147;53.582;10.112;2023-04-06T00:43:33;8.23;;;3.75;;
69856;SDS011;57147;53.582;10.112;2023-04-06T00:48:37;7.80;;;7.03;;
69856;SDS011;57147;53.582;10.112;2023-04-06T00:53:39;8.18;;;6.32;;
69856;SDS011;57147;53.582;10.112;2023-04-06T00:58:40;9.02;;;7.28;;
69856;SDS011;57147;53.582;10.112;2023-04-06T01:03:43;9.35;;;8.00;;
69856;SDS011;57147;53.582;10.112;2023-04-06T01:08:44;5.82;;;5.22;;
69856;SDS011;57147;53.582;10.112;2023-04-06T01:13:44;7.47;;;5.97;;
69856;SDS011;57147;53.582;10.112;2023-04-06T01:18:48;8.75;;;7.63;;
69856;SDS011;57147;53.582;10.112;2023-04-06T01:23:51;8.70;;;7.90;;
69856;SDS011;57147;53.582;10.112;2023-04-06T01:28:52;8.98;;;7.35;;
69856;SDS011;57147;53.582;10.112;2023-04-06T01:33:52;9.80;;;7.32;;
69856;SDS011;57147;53.582;10.112;2023-04-06T01:38:56;11.40;;;7.43;;
69856;SDS011;57147;53.582;10.112;2023-04-06T01:43:57;12.75;;;7.10;;
69856;SDS011;57147;53.582;10.112;2023-04-06T01:48:57;9.52;;;5.93;;
69856;SDS011;57147;53.582;10.112;2023-04-06T01:54:01;7.85;;;7.05;;
69856;SDS011;57147;53.582;10.112;2023-04-06T01:59:01;7.03;;;5.97;;
69856;SDS011;57147;53.582;10.112;2023-04-06T02:04:02;6.93;;;6.22;;
69856;SDS011;57147;53.582;10.112;2023-04-06T02:09:05;8.27;;;6.95;;
69856;SDS011;57147;53.582;10.112;2023-04-06T02:14:06;11.25;;;7.20;;
69856;SDS011;57147;53.582;10.112;2023-04-06T02:19:07;8.73;;;6.70;;
69856;SDS011;57147;53.582;10.112;2023-04-06T02:24:10;11.02;;;8.85;;
69856;SDS011;57147;53.582;10.112;2023-04-06T02:29:11;8.52;;;7.57;;
69856;SDS011;57147;53.582;10.112;2023-04-06T02:34:14;8.82;;;6.47;;
69856;SDS011;57147;53.582;10.112;2023-04-06T02:39:18;10.18;;;7.40;;
69856;SDS011;57147;53.582;10.112;2023-04-06T02:44:19;10.43;;;6.82;;
69856;SDS011;57147;53.582;10.112;2023-04-06T02:49:19;10.20;;;8.63;;
69856;SDS011;57147;53.582;10.112;2023-04-06T02:54:22;10.48;;;9.13;;
69856;SDS011;57147;53.582;10.112;2023-04-06T02:59:23;8.63;;;7.60;;
69856;SDS011;57147;53.582;10.112;2023-04-06T03:04:24;9.02;;;6.72;;
69856;SDS011;57147;53.582;10.112;2023-04-06T03:09:27;8.88;;;8.00;;
69856;SDS011;57147;53.582;10.112;2023-04-06T03:14:28;8.23;;;6.00;;
69856;SDS011;57147;53.582;10.112;2023-04-06T03:19:29;9.27;;;6.38;;
69856;SDS011;57147;53.582;10.112;2023-04-06T03:24:32;9.57;;;6.15;;
69856;SDS011;57147;53.582;10.112;2023-04-06T03:29:32;9.35;;;8.45;;
69856;SDS011;57147;53.582;10.112;2023-04-06T03:34:33;6.50;;;4.13;;
69856;SDS011;57147;53.582;10.112;2023-04-06T03:39:36;7.80;;;6.15;;
69856;SDS011;57147;53.582;10.112;2023-04-06T03:44:37;9.35;;;7.25;;
69856;SDS011;57147;53.582;10.112;2023-04-06T03:49:38;8.48;;;7.40;;
69856;SDS011;57147;53.582;10.112;2023-04-06T03:54:41;8.63;;;4.63;;
69856;SDS011;57147;53.582;10.112;2023-04-06T03:59:42;11.23;;;7.18;;
69856;SDS011;57147;53.582;10.112;2023-04-06T04:04:42;8.70;;;5.95;;
69856;SDS011;57147;53.582;10.112;2023-04-06T04:09:46;10.05;;;6.68;;
69856;SDS011;57147;53.582;10.112;2023-04-06T04:14:46;11.52;;;7.68;;
69856;SDS011;57147;53.582;10.112;2023-04-06T04:19:47;10.20;;;6.38;;
69856;SDS011;57147;53.582;10.112;2023-04-06T04:24:50;8.45;;;7.40;;
69856;SDS011;57147;53.582;10.112;2023-04-06T04:29:51;10.45;;;6.40;;
69856;SDS011;57147;53.582;10.112;2023-04-06T04:34:51;9.43;;;6.43;;
69856;SDS011;57147;53.582;10.112;2023-04-06T04:39:55;10.88;;;6.50;;
69856;SDS011;57147;53.582;10.112;2023-04-06T04:44:55;9.20;;;7.53;;
69856;SDS011;57147;53.582;10.112;2023-04-06T04:49:56;8.75;;;7.93;;
69856;SDS011;57147;53.582;10.112;2023-04-06T04:54:59;10.10;;;7.88;;
69856;SDS011;57147;53.582;10.112;2023-04-06T05:00:00;12.05;;;7.55;;
69856;SDS011;57147;53.582;10.112;2023-04-06T05:05:01;11.65;;;7.03;;
69856;SDS011;57147;53.582;10.112;2023-04-06T05:10:05;11.75;;;6.93;;
69856;SDS011;57147;53.582;10.112;2023-04-06T05:15:06;12.20;;;8.57;;
69856;SDS011;57147;53.582;10.112;2023-04-06T05:20:08;9.73;;;6.80;;
69856;SDS011;57147;53.582;10.112;2023-04-06T05:25:12;7.57;;;5.25;;
69856;SDS011;57147;53.582;10.112;2023-04-06T05:30:13;9.75;;;7.68;;
69856;SDS011;57147;53.582;10.112;2023-04-06T05:35:14;9.30;;;7.32;;
69856;SDS011;57147;53.582;10.112;2023-04-06T05:40:18;9.73;;;8.52;;
69856;SDS011;57147;53.582;10.112;2023-04-06T05:45:19;13.23;;;5.93;;
69856;SDS011;57147;53.582;10.112;2023-04-06T05:50:20;12.55;;;8.27;;
69856;SDS011;57147;53.582;10.112;2023-04-06T05:55:23;12.38;;;9.00;;
69856;SDS011;57147;53.582;10.112;2023-04-06T06:00:24;11.60;;;8.20;;
69856;SDS011;57147;53.582;10.112;2023-04-06T06:05:24;9.48;;;8.13;;
69856;SDS011;57147;53.582;10.112;2023-04-06T06:10:28;11.30;;;7.97;;
69856;SDS011;57147;53.582;10.112;2023-04-06T06:15:29;8.52;;;5.80;;
69856;SDS011;57147;53.582;10.112;2023-04-06T06:20:30;10.32;;;7.80;;
69856;SDS011;57147;53.582;10.112;2023-04-06T06:25:33;17.50;;;10.88;;
69856;SDS011;57147;53.582;10.112;2023-04-06T06:30:33;11.23;;;9.80;;
69856;SDS011;57147;53.582;10.112;2023-04-06T06:35:34;12.88;;;10.48;;
69856;SDS011;57147;53.582;10.112;2023-04-06T06:40:37;11.10;;;9.00;;
69856;SDS011;57147;53.582;10.112;2023-04-06T06:45:42;11.90;;;9.63;;
69856;SDS011;57147;53.582;10.112;2023-04-06T06:50:44;13.15;;;10.88;;
69856;SDS011;57147;53.582;10.112;2023-04-06T06:55:47;18.15;;;10.95;;
69856;SDS011;57147;53.582;10.112;2023-04-06T07:00:47;10.48;;;9.43;;
69856;SDS011;57147;53.582;10.112;2023-04-06T07:05:48;16.77;;;12.20;;
69856;SDS011;57147;53.582;10.112;2023-04-06T07:10:52;14.43;;;11.10;;
69856;SDS011;57147;53.582;10.112;2023-04-06T07:15:53;12.85;;;10.82;;
69856;SDS011;57147;53.582;10.112;2023-04-06T07:20:55;12.80;;;9.45;;
69856;SDS011;57147;53.582;10.112;2023-04-06T07:25:58;12.48;;;9.73;;
69856;SDS011;57147;53.582;10.112;2023-04-06T07:30:59;13.25;;;9.68;;
69856;SDS011;57147;53.582;10.112;2023-04-06T07:35:59;9.43;;;8.43;;
69856;SDS011;57147;53.582;10.112;2023-04-06T07:41:05;10.07;;;9.00;;
69856;SDS011;57147;53.582;10.112;2023-04-06T07:46:05;12.43;;;8.88;;
69856;SDS011;57147;53.582;10.112;2023-04-06T07:51:06;9.43;;;7.60;;
69856;SDS011;57147;53.582;10.112;2023-04-06T07:56:09;11.88;;;7.95;;
69856;SDS011;57147;53.582;10.112;2023-04-06T08:01:10;8.57;;;4.65;;
69856;SDS011;57147;53.582;10.112;2023-04-06T08:06:11;12.43;;;7.75;;
69856;SDS011;57147;53.582;10.112;2023-04-06T08:11:14;9.27;;;7.72;;
69856;SDS011;57147;53.582;10.112;2023-04-06T08:16:24;8.10;;;6.55;;
69856;SDS011;57147;53.582;10.112;2023-04-06T08:21:25;6.93;;;5.53;;
69856;SDS011;57147;53.582;10.112;2023-04-06T08:26:30;7.88;;;5.43;;
69856;SDS011;57147;53.582;10.112;2023-04-06T08:31:31;7.70;;;6.50;;
69856;SDS011;57147;53.582;10.112;2023-04-06T08:36:32;8.98;;;5.75;;
69856;SDS011;57147;53.582;10.112;2023-04-06T08:41:35;8.32;;;6.75;;
69856;SDS011;57147;53.582;10.112;2023-04-06T08:46:36;6.72;;;5.38;;
69856;SDS011;57147;53.582;10.112;2023-04-06T08:51:37;6.80;;;5.97;;
69856;SDS011;57147;53.582;10.112;2023-04-06T08:56:40;6.65;;;4.25;;
69856;SDS011;57147;53.582;10.112;2023-04-06T09:01:42;5.18;;;2.47;;
69856;SDS011;57147;53.582;10.112;2023-04-06T09:06:44;6.07;;;4.85;;
69856;SDS011;57147;53.582;10.112;2023-04-06T09:11:48;6.65;;;5.93;;
69856;SDS011;57147;53.582;10.112;2023-04-06T09:16:49;6.80;;;5.05;;
69856;SDS011;57147;53.582;10.112;2023-04-06T09:22:00;5.57;;;3.72;;
69856;SDS011;57147;53.582;10.112;2023-04-06T09:27:04;7.00;;;5.13;;
69856;SDS011;57147;53.582;10.112;2023-04-06T09:32:05;6.40;;;4.80;;
69856;SDS011;57147;53.582;10.112;2023-04-06T09:37:16;5.80;;;3.65;;
69856;SDS011;57147;53.582;10.112;2023-04-06T09:42:25;6.47;;;5.13;;
69856;SDS011;57147;53.582;10.112;2023-04-06T09:47:26;5.60;;;4.15;;
69856;SDS011;57147;53.582;10.112;2023-04-06T09:52:29;6.35;;;5.53;;
69856;SDS011;57147;53.582;10.112;2023-04-06T09:57:37;6.72;;;5.22;;
69856;SDS011;57147;53.582;10.112;2023-04-06T10:02:44;6.25;;;5.47;;
69856;SDS011;57147;53.582;10.112;2023-04-06T10:07:49;6.07;;;5.15;;
69856;SDS011;57147;53.582;10.112;2023-04-06T10:12:56;4.00;;;2.85;;
69856;SDS011;57147;53.582;10.112;2023-04-06T10:17:58;6.68;;;4.78;;
69856;SDS011;57147;53.582;10.112;2023-04-06T10:23:00;5.90;;;5.00;;
69856;SDS011;57147;53.582;10.112;2023-04-06T10:28:09;5.93;;;5.43;;
69856;SDS011;57147;53.582;10.112;2023-04-06T10:33:15;6.85;;;6.20;;
69856;SDS011;57147;53.582;10.112;2023-04-06T10:38:16;7.95;;;4.65;;
69856;SDS011;57147;53.582;10.112;2023-04-06T10:43:21;8.43;;;7.30;;
69856;SDS011;57147;53.582;10.112;2023-04-06T10:48:22;6.50;;;5.68;;
69856;SDS011;57147;53.582;10.112;2023-04-06T10:53:25;6.80;;;6.10;;
69856;SDS011;57147;53.582;10.112;2023-04-06T10:58:29;10.73;;;6.80;;
69856;SDS011;57147;53.582;10.112;2023-04-06T11:03:31;9.45;;;7.35;;
69856;SDS011;57147;53.582;10.112;2023-04-06T11:08:42;7.50;;;5.03;;
69856;SDS011;57147;53.582;10.112;2023-04-06T11:13:45;7.88;;;7.07;;
69856;SDS011;57147;53.582;10.112;2023-04-06T11:18:48;8.75;;;4.65;;
69856;SDS011;57147;53.582;10.112;2023-04-06T11:29:17;9.25;;;8.05;;
69856;SDS011;57147;53.582;10.112;2023-04-06T11:34:20;9.40;;;8.30;;
69856;SDS011;57147;53.582;10.112;2023-04-06T11:39:22;9.20;;;8.02;;
69856;SDS011;57147;53.582;10.112;2023-04-06T11:44:31;8.60;;;7.40;;
69856;SDS011;57147;53.582;10.112;2023-04-06T11:49:33;8.68;;;7.63;;
69856;SDS011;57147;53.582;10.112;2023-04-06T11:54:37;8.20;;;7.15;;
69856;SDS011;57147;53.582;10.112;2023-04-06T11:59:40;8.88;;;6.65;;
69856;SDS011;57147;53.582;10.112;2023-04-06T12:04:41;10.40;;;8.35;;
69856;SDS011;57147;53.582;10.112;2023-04-06T12:09:42;9.85;;;7.60;;
69856;SDS011;57147;53.582;10.112;2023-04-06T12:14:45;9.82;;;8.13;;
69856;SDS011;57147;53.582;10.112;2023-04-06T12:19:46;9.23;;;8.23;;
69856;SDS011;57147;53.582;10.112;2023-04-06T12:24:47;7.75;;;6.97;;
69856;SDS011;57147;53.582;10.112;2023-04-06T12:29:50;10.98;;;8.00;;
69856;SDS011;57147;53.582;10.112;2023-04-06T12:34:51;21.02;;;16.58;;
69856;SDS011;57147;53.582;10.112;2023-04-06T12:39:52;8.27;;;6.35;;
69856;SDS011;57147;53.582;10.112;2023-04-06T12:44:55;8.95;;;7.22;;
69856;SDS011;57147;53.582;10.112;2023-04-06T12:49:56;8.98;;;7.85;;
69856;SDS011;57147;53.582;10.112;2023-04-06T12:54:58;8.15;;;6.88;;
69856;SDS011;57147;53.582;10.112;2023-04-06T13:00:01;8.27;;;6.65;;
69856;SDS011;57147;53.582;10.112;2023-04-06T13:05:02;6.95;;;5.15;;
69856;SDS011;57147;53.582;10.112;2023-04-06T13:10:04;9.80;;;7.32;;
69856;SDS011;57147;53.582;10.112;2023-04-06T13:20:39;10.40;;;7.30;;
69856;SDS011;57147;53.582;10.112;2023-04-06T13:25:39;8.60;;;7.72;;
69856;SDS011;57147;53.582;10.112;2023-04-06T13:30:40;8.27;;;7.25;;
69856;SDS011;57147;53.582;10.112;2023-04-06T13:35:46;6.72;;;4.82;;
69856;SDS011;57147;53.582;10.112;2023-04-06T13:40:48;7.13;;;6.35;;
69856;SDS011;57147;53.582;10.112;2023-04-06T13:45:49;8.90;;;7.78;;
69856;SDS011;57147;53.582;10.112;2023-04-06T13:50:52;10.23;;;8.15;;
69856;SDS011;57147;53.582;10.112;2023-04-06T13:55:53;8.20;;;6.90;;
69856;SDS011;57147;53.582;10.112;2023-04-06T14:00:54;9.43;;;7.97;;
69856;SDS011;57147;53.582;10.112;2023-04-06T14:05:57;8.73;;;7.82;;
69856;SDS011;57147;53.582;10.112;2023-04-06T14:10:58;9.70;;;8.02;;
69856;SDS011;57147;53.582;10.112;2023-04-06T14:15:59;6.88;;;5.53;;
69856;SDS011;57147;53.582;10.112;2023-04-06T14:21:02;9.52;;;8.63;;
69856;SDS011;57147;53.582;10.112;2023-04-06T14:26:03;8.40;;;6.75;;
69856;SDS011;57147;53.582;10.112;2023-04-06T14:31:09;12.60;;;9.68;;
69856;SDS011;57147;53.582;10.112;2023-04-06T14:36:14;7.82;;;5.18;;
69856;SDS011;57147;53.582;10.112;2023-04-06T14:41:14;7.88;;;6.97;;
69856;SDS011;57147;53.582;10.112;2023-04-06T14:46:16;10.43;;;7.95;;
69856;SDS011;57147;53.582;10.112;2023-04-06T14:51:19;12.27;;;9.80;;
69856;SDS011;57147;53.582;10.112;2023-04-06T14:56:20;10.23;;;7.03;;
69856;SDS011;57147;53.582;10.112;2023-04-06T15:01:21;7.50;;;6.43;;
69856;SDS011;57147;53.582;10.112;2023-04-06T15:06:24;8.40;;;7.53;;
69856;SDS011;57147;53.582;10.112;2023-04-06T15:11:25;8.60;;;7.53;;
69856;SDS011;57147;53.582;10.112;2023-04-06T15:16:25;5.95;;;5.35;;
69856;SDS011;57147;53.582;10.112;2023-04-06T15:21:29;8.45;;;7.55;;
69856;SDS011;57147;53.582;10.112;2023-04-06T15:26:29;9.27;;;7.30;;
69856;SDS011;57147;53.582;10.112;2023-04-06T15:31:30;8.85;;;7.95;;
69856;SDS011;57147;53.582;10.112;2023-04-06T15:36:33;7.53;;;5.05;;
69856;SDS011;57147;53.582;10.112;2023-04-06T15:41:34;9.00;;;8.07;;
69856;SDS011;57147;53.582;10.112;2023-04-06T15:46:35;8.55;;;7.60;;
69856;SDS011;57147;53.582;10.112;2023-04-06T15:51:38;8.20;;;7.38;;
69856;SDS011;57147;53.582;10.112;2023-04-06T15:56:38;7.75;;;6.80;;
69856;SDS011;57147;53.582;10.112;2023-04-06T16:01:39;7.82;;;7.03;;
69856;SDS011;57147;53.582;10.112;2023-04-06T16:06:42;7.80;;;7.03;;
69856;SDS011;57147;53.582;10.112;2023-04-06T16:11:43;7.82;;;7.03;;
69856;SDS011;57147;53.582;10.112;2023-04-06T16:16:44;8.18;;;7.25;;
69856;SDS011;57147;53.582;10.112;2023-04-06T16:21:47;8.77;;;7.65;;
69856;SDS011;57147;53.582;10.112;2023-04-06T16:26:47;11.00;;;7.60;;
69856;SDS011;57147;53.582;10.112;2023-04-06T16:31:48;7.28;;;5.20;;
69856;SDS011;57147;53.582;10.112;2023-04-06T16:36:51;8.75;;;7.80;;
69856;SDS011;57147;53.582;10.112;2023-04-06T16:41:52;7.90;;;7.20;;
69856;SDS011;57147;53.582;10.112;2023-04-06T16:46:52;7.88;;;6.72;;
69856;SDS011;57147;53.582;10.112;2023-04-06T16:51:56;7.72;;;6.85;;
69856;SDS011;57147;53.582;10.112;2023-04-06T16:56:56;8.55;;;7.63;;
69856;SDS011;57147;53.582;10.112;2023-04-06T17:01:57;9.30;;;7.68;;
69856;SDS011;57147;53.582;10.112;2023-04-06T17:07:00;7.93;;;6.35;;
69856;SDS011;57147;53.582;10.112;2023-04-06T17:12:01;9.50;;;7.60;;
69856;SDS011;57147;53.582;10.112;2023-04-06T17:17:02;10.02;;;7.88;;
69856;SDS011;57147;53.582;10.112;2023-04-06T17:22:05;8.13;;;7.25;;
69856;SDS011;57147;53.582;10.112;2023-04-06T17:27:06;9.23;;;6.90;;
69856;SDS011;57147;53.582;10.112;2023-04-06T17:32:06;8.70;;;7.57;;
69856;SDS011;57147;53.582;10.112;2023-04-06T17:37:09;8.23;;;7.13;;
69856;SDS011;57147;53.582;10.112;2023-04-06T17:42:10;9.43;;;6.57;;
69856;SDS011;57147;53.582;10.112;2023-04-06T17:47:11;7.93;;;4.60;;
69856;SDS011;57147;53.582;10.112;2023-04-06T17:52:14;7.95;;;6.38;;
69856;SDS011;57147;53.582;10.112;2023-04-06T17:57:15;7.40;;;6.60;;
69856;SDS011;57147;53.582;10.112;2023-04-06T18:02:15;8.60;;;6.65;;
69856;SDS011;57147;53.582;10.112;2023-04-06T18:07:18;13.30;;;8.98;;
69856;SDS011;57147;53.582;10.112;2023-04-06T18:12:19;14.68;;;13.30;;
69856;SDS011;57147;53.582;10.112;2023-04-06T18:17:20;10.75;;;9.63;;
69856;SDS011;57147;53.582;10.112;2023-04-06T18:22:23;10.98;;;7.97;;
69856;SDS011;57147;53.582;10.112;2023-04-06T18:27:24;14.73;;;13.32;;
69856;SDS011;57147;53.582;10.112;2023-04-06T18:32:24;11.07;;;9.80;;
69856;SDS011;57147;53.582;10.112;2023-04-06T18:37:28;10.77;;;9.57;;
69856;SDS011;57147;53.582;10.112;2023-04-06T18:42:28;10.38;;;9.13;;
69856;SDS011;57147;53.582;10.112;2023-04-06T18:47:29;10.63;;;9.38;;
69856;SDS011;57147;53.582;10.112;2023-04-06T18:52:32;10.20;;;9.13;;
69856;SDS011;57147;53.582;10.112;2023-04-06T18:57:33;11.55;;;10.43;;
69856;SDS011;57147;53.582;10.112;2023-04-06T19:02:33;11.52;;;10.43;;
69856;SDS011;57147;53.582;10.112;2023-04-06T19:07:37;13.00;;;11.70;;
69856;SDS011;57147;53.582;10.112;2023-04-06T19:12:37;12.02;;;9.25;;
69856;SDS011;57147;53.582;10.112;2023-04-06T19:17:38;10.30;;;9.00;;
69856;SDS011;57147;53.582;10.112;2023-04-06T19:22:41;18.50;;;9.52;;
69856;SDS011;57147;53.582;10.112;2023-04-06T19:27:42;16.05;;;13.02;;
69856;SDS011;57147;53.582;10.112;2023-04-06T19:32:43;14.90;;;10.85;;
69856;SDS011;57147;53.582;10.112;2023-04-06T19:37:46;11.57;;;10.20;;
69856;SDS011;57147;53.582;10.112;2023-04-06T19:42:47;14.07;;;12.05;;
69856;SDS011;57147;53.582;10.112;2023-04-06T19:47:47;13.85;;;11.63;;
69856;SDS011;57147;53.582;10.112;2023-04-06T19:52:51;11.50;;;10.32;;
69856;SDS011;57147;53.582;10.112;2023-04-06T19:57:51;16.88;;;14.65;;
69856;SDS011;57147;53.582;10.112;2023-04-06T20:02:53;11.73;;;8.73;;
69856;SDS011;57147;53.582;10.112;2023-04-06T20:07:56;12.80;;;10.68;;
69856;SDS011;57147;53.582;10.112;2023-04-06T20:12:57;14.75;;;9.82;;
69856;SDS011;57147;53.582;10.112;2023-04-06T20:17:58;16.48;;;14.73;;
69856;SDS011;57147;53.582;10.112;2023-04-06T20:23:01;13.68;;;10.40;;
69856;SDS011;57147;53.582;10.112;2023-04-06T20:28:02;13.90;;;8.77;;
69856;SDS011;57147;53.582;10.112;2023-04-06T20:33:03;13.82;;;11.52;;
69856;SDS011;57147;53.582;10.112;2023-04-06T20:38:06;15.20;;;13.40;;
69856;SDS011;57147;53.582;10.112;2023-04-06T20:43:06;15.25;;;13.57;;
69856;SDS011;57147;53.582;10.112;2023-04-06T20:48:07;13.45;;;11.15;;
69856;SDS011;57147;53.582;10.112;2023-04-06T20:58:44;19.52;;;13.80;;
69856;SDS011;57147;53.582;10.112;2023-04-06T21:03:45;19.02;;;13.50;;
69856;SDS011;57147;53.582;10.112;2023-04-06T21:08:48;13.15;;;11.52;;
69856;SDS011;57147;53.582;10.112;2023-04-06T21:13:49;15.13;;;10.52;;
69856;SDS011;57147;53.582;10.112;2023-04-06T21:18:51;15.82;;;12.40;;
69856;SDS011;57147;53.582;10.112;2023-04-06T21:23:55;17.50;;;12.65;;
69856;SDS011;57147;53.582;10.112;2023-04-06T21:28:55;16.05;;;11.52;;
69856;SDS011;57147;53.582;10.112;2023-04-06T21:33:56;14.18;;;9.73;;
69856;SDS011;57147;53.582;10.112;2023-04-06T21:38:59;14.38;;;8.95;;
69856;SDS011;57147;53.582;10.112;2023-04-06T21:44:00;12.48;;;10.27;;
69856;SDS011;57147;53.582;10.112;2023-04-06T21:49:00;16.23;;;10.70;;
69856;SDS011;57147;53.582;10.112;2023-04-06T21:54:04;16.17;;;12.10;;
69856;SDS011;57147;53.582;10.112;2023-04-06T21:59:06;14.40;;;11.82;;
69856;SDS011;57147;53.582;10.112;2023-04-06T22:04:06;15.32;;;12.85;;
69856;SDS011;57147;53.582;10.112;2023-04-06T22:09:09;21.27;;;14.68;;
69856;SDS011;57147;53.582;10.112;2023-04-06T22:14:10;23.02;;;14.80;;
69856;SDS011;57147;53.582;10.112;2023-04-06T22:19:11;17.48;;;12.48;;
69856;SDS011;57147;53.582;10.112;2023-04-06T22:24:16;21.10;;;13.45;;
69856;SDS011;57147;53.582;10.112;2023-04-06T22:29:17;21.45;;;14.43;;
69856;SDS011;57147;53.582;10.112;2023-04-06T22:34:18;20.27;;;14.30;;
69856;SDS011;57147;53.582;10.112;2023-04-06T22:39:21;15.85;;;11.25;;
69856;SDS011;57147;53.582;10.112;2023-04-06T22:44:22;13.13;;;10.75;;
69856;SDS011;57147;53.582;10.112;2023-04-06T22:49:22;12.18;;;10.73;;
69856;SDS011;57147;53.582;10.112;2023-04-06T22:54:26;13.38;;;9.82;;
69856;SDS011;57147;53.582;10.112;2023-04-06T22:59:27;12.15;;;10.30;;
69856;SDS011;57147;53.582;10.112;2023-04-06T23:04:27;13.05;;;10.25;;
69856;SDS011;57147;53.582;10.112;2023-04-06T23:19:49;13.60;;;9.98;;
69856;SDS011;57147;53.582;10.112;2023-04-06T23:24:53;10.32;;;9.02;;
69856;SDS011;57147;53.582;10.112;2023-04-06T23:29:53;10.30;;;8.82;;
69856;SDS011;57147;53.582;10.112;2023-04-06T23:34:54;10.40;;;9.15;;
69856;SDS011;57147;53.582;10.112;2023-04-06T23:39:57;10.85;;;7.78;;
69856;SDS011;57147;53.582;10.112;2023-04-06T23:44:58;13.27;;;9.70;;
69856;SDS011;57147;53.582;10.112;2023-04-06T23:49:58;11.40;;;9.65;;
69856;SDS011;57147;53.582;10.112;2023-04-06T23:55:02;11.57;;;7.93;;
